createdAt,value
2019-02-09T00:01:04.594Z,3.50
2019-02-09T00:03:33.682Z,3.40
2019-02-09T00:06:02.567Z,3.40
2019-02-09T00:08:31.905Z,3.50
2019-02-09T00:11:00.944Z,3.40
2019-02-09T00:13:29.856Z,3.30
2019-02-09T00:15:58.938Z,3.30
2019-02-09T00:18:28.257Z,3.20
2019-02-09T00:20:57.445Z,3.10
2019-02-09T00:23:26.772Z,3.20
2019-02-09T00:25:55.804Z,3.10
2019-02-09T00:28:24.724Z,3.00
2019-02-09T00:30:53.726Z,3.00
2019-02-09T00:33:22.655Z,3.10
2019-02-09T00:35:51.522Z,3.10
2019-02-09T00:38:20.547Z,3.00
2019-02-09T00:41:08.596Z,3.00
2019-02-09T00:43:37.517Z,3.00
2019-02-09T00:46:06.820Z,2.90
2019-02-09T00:48:35.657Z,2.90
2019-02-09T00:51:05.050Z,2.90
2019-02-09T00:53:34.076Z,2.90
2019-02-09T00:56:03.246Z,2.80
2019-02-09T00:58:32.086Z,2.90
2019-02-09T01:01:01.057Z,2.80
2019-02-09T01:03:30.301Z,2.90
2019-02-09T01:05:59.306Z,3.00
2019-02-09T01:08:28.226Z,3.00
2019-02-09T01:10:57.260Z,3.20
2019-02-09T01:13:26.167Z,3.10
2019-02-09T01:15:55.515Z,3.30
2019-02-09T01:18:24.497Z,3.30
2019-02-09T01:20:53.396Z,3.40
2019-02-09T01:23:22.474Z,3.30
2019-02-09T01:25:51.321Z,3.30
2019-02-09T01:28:20.266Z,3.20
2019-02-09T01:30:49.265Z,3.20
2019-02-09T01:33:18.173Z,3.10
2019-02-09T01:35:47.213Z,3.10
2019-02-09T01:38:16.214Z,3.00
2019-02-09T01:40:45.141Z,3.00
2019-02-09T01:43:14.393Z,3.10
2019-02-09T01:45:43.363Z,3.00
2019-02-09T01:48:12.262Z,3.00
2019-02-09T01:50:41.291Z,3.10
2019-02-09T01:53:10.323Z,3.30
2019-02-09T01:55:39.242Z,3.40
2019-02-09T01:58:08.225Z,3.40
2019-02-09T02:00:37.805Z,3.40
2019-02-09T02:03:07.002Z,3.20
2019-02-09T02:05:36.080Z,3.30
2019-02-09T02:08:05.439Z,3.40
2019-02-09T02:10:36.348Z,3.30
2019-02-09T02:13:07.474Z,3.20
2019-02-09T02:15:36.774Z,3.10
2019-02-09T02:18:06.965Z,3.00
2019-02-09T02:20:36.285Z,2.90
2019-02-09T02:23:05.518Z,2.70
2019-02-09T02:25:34.627Z,2.70
2019-02-09T02:28:03.707Z,2.50
2019-02-09T02:30:34.645Z,2.50
2019-02-09T02:33:03.978Z,2.40
2019-02-09T02:35:32.981Z,2.40
2019-02-09T02:38:02.011Z,2.30
2019-02-09T02:40:31.001Z,2.30
2019-02-09T02:42:59.999Z,2.40
2019-02-09T02:45:29.723Z,2.30
2019-02-09T02:47:58.653Z,2.40
2019-02-09T02:50:27.646Z,2.50
2019-02-09T02:52:56.532Z,2.40
2019-02-09T02:55:26.700Z,2.50
2019-02-09T02:57:55.801Z,2.40
2019-02-09T03:00:32.525Z,2.50
2019-02-09T03:02:57.770Z,2.60
2019-02-09T03:05:27.296Z,2.70
2019-02-09T03:07:57.248Z,2.80
2019-02-09T03:10:26.611Z,2.90
2019-02-09T03:12:55.955Z,3.00
2019-02-09T03:15:29.422Z,3.00
2019-02-09T03:17:58.783Z,3.10
2019-02-09T03:20:27.896Z,3.10
2019-02-09T03:22:56.885Z,3.10
2019-02-09T03:25:30.573Z,3.10
2019-02-09T03:27:59.902Z,3.10
2019-02-09T03:30:29.197Z,3.30
2019-02-09T03:32:58.228Z,3.40
2019-02-09T03:35:27.211Z,3.60
2019-02-09T03:37:56.192Z,3.80
2019-02-09T03:40:25.982Z,3.90
2019-02-09T03:42:55.178Z,3.90
2019-02-09T03:45:26.431Z,3.90
2019-02-09T03:47:55.626Z,4.00
2019-02-09T03:50:26.356Z,4.10
2019-02-09T03:52:55.354Z,4.20
2019-02-09T03:55:24.355Z,4.20
2019-02-09T03:57:53.393Z,4.20
2019-02-09T04:00:24.101Z,4.20
2019-02-09T04:02:53.167Z,4.30
2019-02-09T04:05:22.386Z,4.40
2019-02-09T04:07:51.425Z,4.50
2019-02-09T04:10:21.974Z,4.50
2019-02-09T04:12:51.182Z,4.50
2019-02-09T04:15:21.383Z,4.60
2019-02-09T04:17:50.503Z,4.60
2019-02-09T04:20:20.849Z,4.70
2019-02-09T04:22:49.902Z,4.70
2019-02-09T04:25:19.656Z,4.70
2019-02-09T04:27:48.874Z,4.70
2019-02-09T04:30:23.051Z,4.70
2019-02-09T04:32:52.440Z,4.80
2019-02-09T04:35:22.441Z,4.70
2019-02-09T04:37:51.460Z,4.80
2019-02-09T04:40:22.815Z,4.80
2019-02-09T04:42:51.828Z,4.80
2019-02-09T04:45:20.822Z,4.70
2019-02-09T04:47:49.876Z,4.60
2019-02-09T04:50:19.663Z,4.70
2019-02-09T04:52:48.641Z,4.70
2019-02-09T04:55:19.587Z,4.80
2019-02-09T04:57:48.827Z,4.80
2019-02-09T05:00:23.038Z,4.80
2019-02-09T05:02:52.725Z,4.70
2019-02-09T05:05:21.858Z,4.60
2019-02-09T05:07:50.998Z,4.50
2019-02-09T05:10:20.840Z,4.40
2019-02-09T05:12:49.895Z,4.30
2019-02-09T05:15:19.307Z,4.40
2019-02-09T05:17:48.577Z,4.50
2019-02-09T05:20:19.134Z,4.60
2019-02-09T05:22:48.413Z,4.60
2019-02-09T05:25:18.069Z,4.60
2019-02-09T05:27:47.202Z,4.60
2019-02-09T05:30:18.870Z,4.70
2019-02-09T05:32:47.865Z,4.70
2019-02-09T05:35:17.218Z,5.10
2019-02-09T05:37:46.225Z,5.30
2019-02-09T05:40:17.344Z,5.70
2019-02-09T05:42:46.467Z,5.90
2019-02-09T05:45:18.324Z,6.90
2019-02-09T05:47:47.451Z,7.50
2019-02-09T05:50:17.806Z,7.00
2019-02-09T05:52:46.960Z,7.20
2019-02-09T05:55:16.821Z,7.30
2019-02-09T05:57:45.929Z,7.50
2019-02-09T06:00:20.364Z,7.10
2019-02-09T06:02:50.112Z,6.50
2019-02-09T06:05:19.183Z,6.20
2019-02-09T06:07:48.111Z,5.90
2019-02-09T06:10:17.321Z,5.80
2019-02-09T06:12:46.303Z,5.80
2019-02-09T06:15:16.722Z,5.90
2019-02-09T06:17:45.699Z,5.90
2019-02-09T06:20:17.782Z,6.00
2019-02-09T06:22:47.095Z,6.00
2019-02-09T06:25:16.436Z,6.10
2019-02-09T06:27:45.415Z,6.10
2019-02-09T06:30:17.766Z,6.10
2019-02-09T06:32:46.749Z,6.20
2019-02-09T06:35:15.734Z,6.30
2019-02-09T06:37:44.742Z,6.40
2019-02-09T06:40:14.651Z,6.40
2019-02-09T06:42:43.571Z,6.40
2019-02-09T06:45:15.403Z,6.50
2019-02-09T06:47:44.507Z,6.50
2019-02-09T06:50:25.129Z,6.60
2019-02-09T06:52:54.400Z,6.60
2019-02-09T06:55:23.411Z,6.60
2019-02-09T06:57:52.406Z,6.60
2019-02-09T07:00:21.413Z,6.60
2019-02-09T07:02:50.489Z,6.70
2019-02-09T07:05:19.832Z,6.70
2019-02-09T07:07:49.038Z,6.80
2019-02-09T07:10:20.528Z,6.80
2019-02-09T07:12:49.515Z,6.90
2019-02-09T07:15:25.998Z,7.00
2019-02-09T07:17:55.505Z,7.00
2019-02-09T07:20:25.501Z,7.00
2019-02-09T07:22:55.275Z,7.00
2019-02-09T07:25:24.869Z,7.00
2019-02-09T07:27:53.966Z,7.00
2019-02-09T07:30:24.765Z,7.00
2019-02-09T07:32:54.104Z,7.00
2019-02-09T07:35:23.286Z,7.00
2019-02-09T07:37:52.739Z,6.90
2019-02-09T07:40:23.478Z,7.00
2019-02-09T07:42:52.586Z,7.00
2019-02-09T07:45:23.661Z,7.10
2019-02-09T07:47:52.685Z,7.10
2019-02-09T07:50:22.871Z,7.10
2019-02-09T07:52:53.388Z,7.10
2019-02-09T07:55:22.613Z,7.00
2019-02-09T07:57:51.979Z,7.00
2019-02-09T08:00:23.244Z,7.00
2019-02-09T08:02:52.295Z,7.00
2019-02-09T08:05:22.392Z,7.00
2019-02-09T08:07:51.440Z,7.00
2019-02-09T08:10:23.747Z,7.00
2019-02-09T08:12:52.732Z,7.00
2019-02-09T08:15:26.933Z,7.10
2019-02-09T08:17:56.157Z,7.20
2019-02-09T08:20:26.462Z,7.10
2019-02-09T08:22:56.662Z,7.30
2019-02-09T08:25:27.265Z,7.40
2019-02-09T08:27:56.871Z,7.40
2019-02-09T08:30:28.729Z,7.50
2019-02-09T08:32:58.106Z,7.50
2019-02-09T08:35:27.114Z,7.60
2019-02-09T08:37:56.575Z,7.50
2019-02-09T08:40:25.894Z,7.50
2019-02-09T08:42:54.898Z,7.50
2019-02-09T08:45:24.469Z,7.50
2019-02-09T08:47:53.765Z,7.40
2019-02-09T08:50:28.183Z,7.40
2019-02-09T08:52:57.334Z,7.60
2019-02-09T08:55:26.738Z,7.60
2019-02-09T08:57:56.064Z,7.60
2019-02-09T09:00:27.421Z,7.60
2019-02-09T09:02:56.690Z,7.70
2019-02-09T09:05:25.785Z,7.70
2019-02-09T09:07:55.036Z,7.80
2019-02-09T09:10:24.809Z,7.90
2019-02-09T09:12:54.121Z,8.00
2019-02-09T09:15:25.991Z,8.10
2019-02-09T09:17:54.936Z,8.10
2019-02-09T09:20:29.553Z,8.10
2019-02-09T09:22:58.573Z,8.00
2019-02-09T09:25:27.611Z,8.10
2019-02-09T09:27:56.589Z,8.30
2019-02-09T09:30:26.574Z,8.40
2019-02-09T09:32:55.757Z,8.40
2019-02-09T09:35:24.857Z,8.50
2019-02-09T09:37:54.710Z,8.50
2019-02-09T09:40:31.874Z,8.50
2019-02-09T09:43:00.907Z,8.60
2019-02-09T09:45:31.820Z,8.50
2019-02-09T09:48:00.947Z,8.50
2019-02-09T09:50:30.064Z,8.50
2019-02-09T09:52:59.049Z,8.60
2019-02-09T09:55:27.965Z,8.80
2019-02-09T09:57:56.949Z,8.90
2019-02-09T10:00:26.390Z,8.90
2019-02-09T10:02:55.398Z,9.10
2019-02-09T10:05:24.744Z,9.20
2019-02-09T10:07:53.682Z,9.30
2019-02-09T10:10:22.898Z,9.50
2019-02-09T10:12:51.978Z,9.50
2019-02-09T10:15:22.369Z,9.50
2019-02-09T10:17:51.340Z,9.60
2019-02-09T10:20:22.050Z,9.50
2019-02-09T10:22:51.146Z,9.70
2019-02-09T10:25:20.413Z,9.70
2019-02-09T10:27:49.986Z,9.80
2019-02-09T10:30:21.134Z,9.80
2019-02-09T10:32:50.339Z,9.80
2019-02-09T10:35:19.850Z,9.80
2019-02-09T10:37:49.083Z,10.10
2019-02-09T10:40:21.465Z,10.00
2019-02-09T10:42:50.764Z,9.90
2019-02-09T10:45:22.763Z,10.00
2019-02-09T10:47:51.816Z,10.00
2019-02-09T10:50:29.325Z,10.40
2019-02-09T10:52:58.306Z,10.40
2019-02-09T10:55:27.409Z,10.50
2019-02-09T10:57:56.441Z,10.30
2019-02-09T11:00:49.620Z,10.40
2019-02-09T11:03:19.110Z,10.50
2019-02-09T11:05:48.044Z,10.90
2019-02-09T11:08:17.411Z,10.90
2019-02-09T11:10:46.409Z,10.80
2019-02-09T11:13:15.428Z,10.60
2019-02-09T11:15:44.426Z,10.80
2019-02-09T11:18:13.425Z,11.10
2019-02-09T11:20:42.388Z,11.00
2019-02-09T11:23:11.419Z,11.20
2019-02-09T11:25:40.372Z,11.30
2019-02-09T11:28:09.493Z,11.30
2019-02-09T11:30:38.563Z,11.20
2019-02-09T11:33:07.835Z,11.10
2019-02-09T11:35:36.990Z,10.80
2019-02-09T11:38:06.734Z,10.70
2019-02-09T11:40:35.759Z,10.90
2019-02-09T11:43:05.973Z,10.90
2019-02-09T11:45:35.185Z,11.20
2019-02-09T11:48:04.704Z,10.90
2019-02-09T11:50:33.650Z,10.80
2019-02-09T11:53:02.776Z,10.90
2019-02-09T11:55:31.960Z,11.20
2019-02-09T11:58:01.158Z,11.40
2019-02-09T12:00:32.697Z,11.20
2019-02-09T12:03:08.491Z,11.20
2019-02-09T12:05:33.380Z,11.00
2019-02-09T12:08:02.302Z,11.20
2019-02-09T12:10:31.606Z,11.60
2019-02-09T12:13:00.534Z,11.70
2019-02-09T12:15:31.884Z,11.90
2019-02-09T12:18:01.148Z,12.10
2019-02-09T12:20:30.130Z,11.80
2019-02-09T12:22:59.149Z,11.80
2019-02-09T12:25:30.411Z,11.80
2019-02-09T12:27:59.509Z,11.80
2019-02-09T12:30:30.490Z,11.10
2019-02-09T12:32:59.509Z,11.00
2019-02-09T12:35:28.511Z,11.00
2019-02-09T12:37:57.634Z,11.00
2019-02-09T12:40:31.069Z,10.80
2019-02-09T12:43:00.141Z,10.60
2019-02-09T12:45:31.062Z,10.50
2019-02-09T12:48:00.401Z,10.70
2019-02-09T12:50:30.651Z,10.60
2019-02-09T12:52:59.721Z,10.30
2019-02-09T12:55:29.167Z,10.10
2019-02-09T12:57:58.204Z,10.10
2019-02-09T13:00:29.360Z,10.00
2019-02-09T13:03:00.504Z,10.10
2019-02-09T13:05:30.004Z,10.30
2019-02-09T13:07:59.037Z,10.30
2019-02-09T13:10:28.091Z,10.30
2019-02-09T13:12:57.757Z,10.30
2019-02-09T13:15:28.309Z,10.70
2019-02-09T13:17:58.035Z,10.80
2019-02-09T13:20:27.746Z,10.70
2019-02-09T13:22:57.418Z,10.80
2019-02-09T13:25:26.910Z,10.80
2019-02-09T13:27:56.055Z,11.20
2019-02-09T13:30:30.285Z,11.40
2019-02-09T13:32:59.569Z,11.50
2019-02-09T13:35:29.098Z,11.60
2019-02-09T13:37:58.357Z,11.40
2019-02-09T13:40:27.566Z,11.40
2019-02-09T13:42:56.995Z,10.80
2019-02-09T13:45:28.102Z,10.60
2019-02-09T13:47:57.146Z,10.60
2019-02-09T13:50:26.737Z,10.60
2019-02-09T13:52:55.856Z,10.80
2019-02-09T13:55:24.898Z,10.90
2019-02-09T13:57:53.966Z,10.90
2019-02-09T14:00:23.665Z,11.10
2019-02-09T14:02:53.813Z,11.00
2019-02-09T14:05:22.891Z,11.00
2019-02-09T14:07:51.976Z,10.90
2019-02-09T14:10:21.731Z,10.70
2019-02-09T14:12:51.190Z,10.60
2019-02-09T14:15:30.871Z,10.40
2019-02-09T14:18:01.500Z,10.30
2019-02-09T14:20:30.639Z,10.20
2019-02-09T14:22:59.759Z,10.40
2019-02-09T14:25:29.025Z,10.40
2019-02-09T14:28:00.180Z,10.40
2019-02-09T14:30:30.340Z,10.30
2019-02-09T14:32:59.773Z,10.20
2019-02-09T14:35:30.082Z,10.20
2019-02-09T14:37:59.411Z,9.90
2019-02-09T14:40:30.382Z,9.90
2019-02-09T14:42:59.583Z,10.00
2019-02-09T14:45:33.783Z,10.00
2019-02-09T14:48:02.790Z,10.00
2019-02-09T14:50:32.164Z,9.80
2019-02-09T14:53:01.440Z,9.80
2019-02-09T14:55:32.539Z,9.80
2019-02-09T14:58:02.460Z,9.80
2019-02-09T15:00:34.106Z,9.90
2019-02-09T15:03:03.245Z,9.80
2019-02-09T15:05:32.234Z,9.80
2019-02-09T15:08:01.647Z,9.70
2019-02-09T15:10:30.741Z,9.70
2019-02-09T15:12:59.692Z,9.80
2019-02-09T15:15:31.333Z,9.70
2019-02-09T15:18:00.352Z,9.70
2019-02-09T15:20:32.386Z,9.50
2019-02-09T15:23:03.882Z,9.60
2019-02-09T15:25:32.914Z,9.60
2019-02-09T15:28:03.630Z,9.60
2019-02-09T15:30:34.270Z,9.50
2019-02-09T15:33:03.517Z,9.60
2019-02-09T15:35:32.699Z,9.70
2019-02-09T15:38:01.967Z,9.70
2019-02-09T15:40:30.970Z,9.80
2019-02-09T15:43:00.007Z,9.60
2019-02-09T15:45:30.192Z,9.70
2019-02-09T15:47:59.209Z,9.60
2019-02-09T15:50:28.208Z,9.40
2019-02-09T15:52:57.376Z,9.50
2019-02-09T15:55:26.773Z,9.60
2019-02-09T15:57:55.779Z,9.60
2019-02-09T16:00:26.343Z,9.60
2019-02-09T16:02:56.440Z,9.40
2019-02-09T16:05:25.600Z,9.30
2019-02-09T16:07:54.881Z,9.20
2019-02-09T16:10:25.007Z,9.30
2019-02-09T16:12:53.931Z,9.30
2019-02-09T16:15:25.112Z,9.30
2019-02-09T16:17:54.147Z,9.40
2019-02-09T16:20:24.963Z,9.40
2019-02-09T16:22:54.652Z,9.30
2019-02-09T16:25:23.934Z,9.30
2019-02-09T16:27:52.853Z,9.40
2019-02-09T16:30:23.224Z,9.50
2019-02-09T16:32:52.601Z,9.50
2019-02-09T16:35:22.447Z,9.50
2019-02-09T16:37:51.464Z,9.50
2019-02-09T16:40:22.130Z,9.40
2019-02-09T16:42:51.693Z,9.30
2019-02-09T16:45:38.761Z,9.20
2019-02-09T16:48:08.277Z,9.20
2019-02-09T16:50:37.282Z,9.30
2019-02-09T16:53:06.413Z,9.20
2019-02-09T16:55:35.404Z,9.10
2019-02-09T16:58:04.775Z,9.10
2019-02-09T17:00:38.946Z,9.00
2019-02-09T17:03:09.382Z,9.00
2019-02-09T17:05:38.694Z,8.90
2019-02-09T17:08:07.758Z,8.90
2019-02-09T17:10:36.774Z,8.90
2019-02-09T17:13:06.377Z,8.80
2019-02-09T17:15:35.363Z,8.90
2019-02-09T17:18:04.710Z,8.80
2019-02-09T17:20:33.663Z,8.80
2019-02-09T17:23:02.707Z,8.80
2019-02-09T17:25:31.701Z,8.90
2019-02-09T17:28:00.764Z,9.00
2019-02-09T17:30:30.438Z,8.90
2019-02-09T17:32:59.561Z,8.90
2019-02-09T17:35:28.757Z,9.00
2019-02-09T17:37:57.972Z,9.00
2019-02-09T17:40:32.798Z,8.90
2019-02-09T17:43:01.697Z,8.90
2019-02-09T17:45:33.505Z,9.20
2019-02-09T17:48:02.362Z,9.20
2019-02-09T17:50:31.616Z,9.00
2019-02-09T17:53:00.953Z,8.90
2019-02-09T17:55:29.891Z,9.00
2019-02-09T17:57:58.843Z,9.00
2019-02-09T18:00:33.539Z,8.90
2019-02-09T18:03:02.420Z,9.00
2019-02-09T18:05:31.637Z,9.00
2019-02-09T18:08:00.989Z,9.10
2019-02-09T18:10:29.974Z,9.20
2019-02-09T18:12:58.917Z,9.20
2019-02-09T18:15:27.918Z,9.00
2019-02-09T18:17:56.761Z,8.90
2019-02-09T18:20:28.007Z,9.00
2019-02-09T18:22:57.078Z,8.80
2019-02-09T18:25:26.308Z,8.60
2019-02-09T18:27:55.230Z,8.60
2019-02-09T18:30:24.536Z,8.60
2019-02-09T18:32:53.834Z,8.70
2019-02-09T18:35:22.821Z,8.70
2019-02-09T18:37:52.207Z,8.60
2019-02-09T18:40:22.289Z,8.60
2019-02-09T18:42:51.428Z,8.60
2019-02-09T18:45:23.125Z,8.70
2019-02-09T18:47:52.126Z,8.80
2019-02-09T18:50:23.539Z,8.70
2019-02-09T18:52:53.183Z,8.60
2019-02-09T18:55:23.029Z,8.50
2019-02-09T18:57:52.389Z,8.60
2019-02-09T19:00:23.970Z,8.60
2019-02-09T19:02:53.082Z,8.50
2019-02-09T19:05:22.650Z,8.40
2019-02-09T19:07:51.753Z,8.50
2019-02-09T19:10:22.820Z,8.70
2019-02-09T19:12:51.856Z,8.70
2019-02-09T19:15:21.496Z,8.60
2019-02-09T19:17:50.521Z,8.30
2019-02-09T19:20:31.040Z,8.20
2019-02-09T19:23:00.177Z,8.40
2019-02-09T19:25:29.331Z,8.50
2019-02-09T19:27:58.389Z,8.50
2019-02-09T19:30:27.638Z,8.50
2019-02-09T19:32:56.607Z,8.80
2019-02-09T19:35:25.619Z,8.70
2019-02-09T19:37:54.679Z,8.70
2019-02-09T19:40:23.748Z,8.70
2019-02-09T19:42:52.810Z,8.80
2019-02-09T19:45:26.543Z,8.50
2019-02-09T19:47:55.678Z,8.60
2019-02-09T19:50:24.586Z,8.60
2019-02-09T19:52:53.628Z,8.70
2019-02-09T19:55:24.199Z,8.80
2019-02-09T19:57:54.172Z,8.70
2019-02-09T20:00:25.644Z,8.40
2019-02-09T20:02:54.626Z,8.50
2019-02-09T20:05:24.098Z,8.40
2019-02-09T20:07:55.441Z,8.40
2019-02-09T20:10:27.567Z,8.50
2019-02-09T20:12:56.658Z,8.60
2019-02-09T20:15:26.130Z,8.70
2019-02-09T20:17:55.462Z,8.60
2019-02-09T20:20:24.441Z,8.70
2019-02-09T20:22:53.430Z,8.70
2019-02-09T20:25:22.726Z,8.80
2019-02-09T20:27:51.736Z,8.90
2019-02-09T20:30:25.543Z,8.80
2019-02-09T20:32:54.857Z,8.90
2019-02-09T20:35:27.703Z,8.90
2019-02-09T20:37:54.960Z,8.60
2019-02-09T20:40:35.245Z,8.60
2019-02-09T20:43:04.745Z,8.60
2019-02-09T20:45:34.103Z,8.60
2019-02-09T20:48:03.094Z,8.70
2019-02-09T20:50:32.017Z,8.60
2019-02-09T20:53:01.272Z,8.80
2019-02-09T20:55:30.278Z,8.80
2019-02-09T20:57:59.201Z,9.00
2019-02-09T21:00:28.357Z,9.00
2019-02-09T21:02:57.587Z,8.90
2019-02-09T21:05:35.640Z,8.90
2019-02-09T21:07:58.897Z,8.90
2019-02-09T21:10:29.294Z,8.90
2019-02-09T21:12:58.382Z,9.00
2019-02-09T21:15:27.999Z,8.80
2019-02-09T21:17:57.184Z,8.70
2019-02-09T21:20:26.200Z,8.90
2019-02-09T21:22:55.514Z,8.80
2019-02-09T21:25:29.605Z,8.90
2019-02-09T21:27:58.517Z,8.80
2019-02-09T21:30:27.742Z,8.80
2019-02-09T21:32:57.101Z,8.70
2019-02-09T21:35:26.484Z,8.70
2019-02-09T21:37:55.465Z,8.70
2019-02-09T21:40:25.808Z,8.70
2019-02-09T21:42:54.824Z,8.70
2019-02-09T21:45:23.959Z,8.80
2019-02-09T21:47:53.472Z,8.70
2019-02-09T21:50:28.077Z,8.70
2019-02-09T21:52:57.095Z,8.70
2019-02-09T21:55:26.174Z,8.60
2019-02-09T21:57:55.242Z,8.50
2019-02-09T22:00:30.843Z,8.30
2019-02-09T22:02:59.781Z,8.30
2019-02-09T22:05:29.064Z,8.30
2019-02-09T22:07:58.284Z,8.50
2019-02-09T22:10:31.096Z,8.40
2019-02-09T22:12:58.884Z,8.40
2019-02-09T22:15:29.412Z,8.60
2019-02-09T22:17:58.366Z,8.70
2019-02-09T22:20:27.476Z,8.60
2019-02-09T22:22:56.584Z,8.70
2019-02-09T22:25:26.215Z,8.70
2019-02-09T22:27:55.239Z,8.50
2019-02-09T22:30:26.026Z,8.50
2019-02-09T22:32:55.190Z,8.50
2019-02-09T22:35:24.445Z,8.60
2019-02-09T22:37:53.513Z,8.60
2019-02-09T22:40:24.764Z,8.70
2019-02-09T22:42:53.838Z,8.70
2019-02-09T22:45:23.359Z,8.90
2019-02-09T22:47:52.986Z,8.70
2019-02-09T22:50:27.557Z,8.90
2019-02-09T22:52:57.117Z,8.90
2019-02-09T22:55:26.214Z,9.00
2019-02-09T22:57:55.224Z,9.00
2019-02-09T23:00:50.777Z,9.00
2019-02-09T23:03:21.193Z,9.00
2019-02-09T23:06:43.503Z,9.00
2019-02-09T23:09:21.741Z,9.00
2019-02-09T23:11:50.677Z,9.00
2019-02-09T23:14:20.033Z,8.90
2019-02-09T23:16:49.025Z,8.90
2019-02-09T23:19:18.021Z,8.90
2019-02-09T23:21:46.949Z,8.80
2019-02-09T23:24:15.785Z,8.80
2019-02-09T23:26:44.695Z,8.80
2019-02-09T23:29:13.671Z,8.70
2019-02-09T23:31:42.695Z,8.60
2019-02-09T23:34:11.655Z,8.40
2019-02-09T23:36:40.674Z,8.40
2019-02-09T23:39:09.922Z,8.50
2019-02-09T23:41:38.990Z,8.40
2019-02-09T23:44:08.035Z,8.30
2019-02-09T23:46:37.052Z,8.30
2019-02-09T23:49:06.112Z,8.30
2019-02-09T23:51:35.118Z,8.30
2019-02-09T23:54:04.123Z,8.30
2019-02-09T23:56:33.122Z,8.30
2019-02-09T23:59:02.163Z,8.00
